Time;durP1;ratioP1;P1;durP2;ratioP2;P2;SDS_P1;SDS_P2;PMS_P1;PMS_P2;Temp;Humidity;BMP_temperature;BMP_pressure;BME280_temperature;BME280_humidity;BME280_pressure;Samples;Min_cycle;Max_cycle;Signal;HPM_P1;HPM_P2
2021/12/22 00:00:46;;;;;;;35.25;19.63;;;;;;;;;;5018588;28;20230;-80
2021/12/22 00:03:12;;;;;;;42.85;21.55;;;;;;;;;;4999624;28;20096;-68
2021/12/22 00:05:44;;;;;;;40.80;21.17;;;;;;;;;;4989658;28;20103;-71
2021/12/22 00:08:13;;;;;;;40.90;22.33;;;;;;;;;;5022521;28;20081;-69
2021/12/22 00:10:45;;;;;;;36.25;21.13;;;;;;;;;;4982966;28;20048;-74
2021/12/22 00:13:12;;;;;;;40.13;20.23;;;;;;;;;;5017181;28;20041;-69
2021/12/22 00:15:38;;;;;;;40.47;22.17;;;;;;;;;;5000063;28;20053;-69
2021/12/22 00:18:05;;;;;;;37.85;20.98;;;;;;;;;;5014446;28;20528;-80
2021/12/22 00:20:32;;;;;;;37.20;20.70;;;;;;;;;;4999654;28;20068;-78
2021/12/22 00:22:58;;;;;;;43.13;22.52;;;;;;;;;;5019463;28;20037;-72
2021/12/22 00:25:26;;;;;;;39.25;21.25;;;;;;;;;;5001656;28;20107;-72
2021/12/22 00:27:54;;;;;;;39.50;20.52;;;;;;;;;;4975586;28;20065;-71
2021/12/22 00:30:23;;;;;;;44.65;21.17;;;;;;;;;;5017360;28;20060;-72
2021/12/22 00:32:52;;;;;;;39.85;21.58;;;;;;;;;;5015162;28;20436;-68
2021/12/22 00:35:26;;;;;;;45.67;22.63;;;;;;;;;;4983258;28;20061;-81
2021/12/22 00:37:52;;;;;;;49.05;22.48;;;;;;;;;;5001180;28;20380;-71
2021/12/22 00:40:18;;;;;;;41.67;21.85;;;;;;;;;;5016032;28;20061;-70
2021/12/22 00:42:45;;;;;;;42.53;21.98;;;;;;;;;;5011494;28;20064;-73
2021/12/22 00:45:11;;;;;;;43.58;22.73;;;;;;;;;;4999141;28;21519;-76
2021/12/22 00:47:38;;;;;;;43.42;23.73;;;;;;;;;;5018350;28;20056;-72
2021/12/22 00:50:05;;;;;;;45.88;22.60;;;;;;;;;;5015240;28;20041;-76
2021/12/22 00:52:32;;;;;;;41.15;22.60;;;;;;;;;;5014945;28;20049;-73
2021/12/22 00:54:58;;;;;;;50.35;24.30;;;;;;;;;;4983408;28;20049;-73
2021/12/22 00:57:24;;;;;;;46.03;24.75;;;;;;;;;;4997837;28;20061;-80
2021/12/22 00:59:51;;;;;;;47.63;24.63;;;;;;;;;;5012794;28;20115;-71
2021/12/22 01:02:19;;;;;;;45.55;24.75;;;;;;;;;;4994145;28;20115;-71
2021/12/22 01:04:46;;;;;;;48.78;24.42;;;;;;;;;;5001151;28;20053;-70
2021/12/22 01:07:12;;;;;;;50.53;24.27;;;;;;;;;;5017798;28;20037;-81
2021/12/22 01:09:39;;;;;;;46.70;24.50;;;;;;;;;;5015683;28;20148;-72
2021/12/22 01:12:06;;;;;;;48.75;24.58;;;;;;;;;;5023619;28;20049;-69
2021/12/22 01:14:34;;;;;;;44.35;24.38;;;;;;;;;;5021396;28;20145;-68
2021/12/22 01:17:03;;;;;;;45.85;24.55;;;;;;;;;;5021973;28;20499;-75
2021/12/22 01:19:42;;;;;;;47.92;24.50;;;;;;;;;;5025292;28;20124;-70
2021/12/22 01:22:32;;;;;;;44.05;24.42;;;;;;;;;;5022992;28;20060;-69
2021/12/22 01:25:04;;;;;;;44.85;24.83;;;;;;;;;;5006900;28;20132;-72
2021/12/22 01:27:41;;;;;;;48.00;23.90;;;;;;;;;;5003135;28;20133;-78
2021/12/22 01:30:19;;;;;;;44.53;23.27;;;;;;;;;;5004587;28;20053;-69
2021/12/22 01:32:48;;;;;;;41.58;23.25;;;;;;;;;;5000010;28;20395;-70
2021/12/22 01:35:18;;;;;;;45.55;23.67;;;;;;;;;;5001405;28;20055;-70
2021/12/22 01:37:46;;;;;;;45.03;24.40;;;;;;;;;;5000111;28;20077;-69
2021/12/22 01:40:16;;;;;;;41.05;23.55;;;;;;;;;;5015788;28;20430;-69
2021/12/22 01:42:43;;;;;;;49.92;24.27;;;;;;;;;;4997044;28;20069;-68
2021/12/22 01:50:56;;;;;;;52.22;25.63;;;;;;;;;;5014540;28;20045;-70
2021/12/22 01:53:22;;;;;;;53.00;26.15;;;;;;;;;;4995779;28;20499;-67
2021/12/22 01:56:01;;;;;;;50.25;25.65;;;;;;;;;;4998858;28;20057;-75
2021/12/22 01:58:41;;;;;;;52.30;25.20;;;;;;;;;;5014691;28;20502;-78
2021/12/22 02:01:10;;;;;;;55.53;26.23;;;;;;;;;;5011893;28;20877;-76
2021/12/22 02:03:39;;;;;;;48.58;25.20;;;;;;;;;;5016149;28;20129;-67
2021/12/22 02:06:06;;;;;;;47.38;25.20;;;;;;;;;;5014893;28;20050;-70
2021/12/22 02:08:33;;;;;;;45.33;25.38;;;;;;;;;;4997398;28;20398;-69
2021/12/22 02:10:59;;;;;;;52.60;24.00;;;;;;;;;;4980697;28;20049;-75
2021/12/22 02:13:31;;;;;;;54.22;24.42;;;;;;;;;;4994370;28;20064;-75
2021/12/22 02:16:05;;;;;;;46.47;25.05;;;;;;;;;;5013124;28;20041;-73
2021/12/22 02:18:36;;;;;;;47.50;24.30;;;;;;;;;;5013159;28;20041;-76
2021/12/22 02:21:05;;;;;;;54.35;25.58;;;;;;;;;;5015439;28;20080;-80
2021/12/22 02:23:31;;;;;;;45.30;24.38;;;;;;;;;;4996999;28;20054;-69
2021/12/22 02:26:05;;;;;;;48.65;25.33;;;;;;;;;;5015294;28;20544;-80
2021/12/22 02:28:34;;;;;;;48.72;26.48;;;;;;;;;;5014776;28;20428;-73
2021/12/22 02:31:01;;;;;;;50.92;25.67;;;;;;;;;;5014281;28;20075;-69
2021/12/22 02:33:39;;;;;;;48.78;24.27;;;;;;;;;;4992666;28;20064;-71
2021/12/22 02:36:10;;;;;;;50.42;24.10;;;;;;;;;;4995738;28;20054;-74
2021/12/22 02:38:39;;;;;;;44.63;23.20;;;;;;;;;;5013897;28;20042;-77
2021/12/22 02:41:09;;;;;;;44.50;23.08;;;;;;;;;;5012371;28;20053;-74
2021/12/22 02:43:44;;;;;;;49.88;23.48;;;;;;;;;;4992611;28;20057;-72
2021/12/22 02:46:12;;;;;;;44.72;23.45;;;;;;;;;;5012509;28;21045;-69
2021/12/22 02:48:39;;;;;;;44.38;21.30;;;;;;;;;;5012918;28;20045;-79
2021/12/22 02:51:05;;;;;;;41.25;21.55;;;;;;;;;;5010067;28;20053;-76
2021/12/22 02:53:41;;;;;;;39.30;20.77;;;;;;;;;;4989519;28;20451;-78
2021/12/22 02:56:25;;;;;;;40.33;21.27;;;;;;;;;;4994696;28;20053;-67
2021/12/22 03:01:54;;;;;;;33.50;20.58;;;;;;;;;;4989307;28;20072;-78
2021/12/22 03:04:14;;;;;;;35.70;19.42;;;;;;;;;;5008860;28;20396;-66
2021/12/22 03:07:27;;;;;;;38.03;18.75;;;;;;;;;;5009389;28;20466;-68
2021/12/22 03:09:34;;;;;;;32.20;19.00;;;;;;;;;;5002186;28;20041;-80
2021/12/22 03:12:05;;;;;;;34.47;18.95;;;;;;;;;;5006335;28;20059;-76
2021/12/22 03:14:32;;;;;;;37.42;19.30;;;;;;;;;;5010574;28;20045;-77
2021/12/22 03:16:58;;;;;;;36.42;19.52;;;;;;;;;;5010259;28;20091;-77
2021/12/22 03:19:31;;;;;;;34.17;20.00;;;;;;;;;;4995564;28;20070;-67
2021/12/22 03:22:03;;;;;;;35.22;19.95;;;;;;;;;;4991469;28;20083;-74
2021/12/22 03:24:35;;;;;;;40.70;19.45;;;;;;;;;;5014725;28;20111;-69
2021/12/22 03:27:03;;;;;;;43.72;20.23;;;;;;;;;;5014564;28;20045;-76
2021/12/22 03:29:32;;;;;;;38.53;20.30;;;;;;;;;;5013062;28;20053;-69
2021/12/22 03:31:59;;;;;;;40.63;20.27;;;;;;;;;;4990749;28;20414;-78
2021/12/22 03:34:25;;;;;;;39.20;19.98;;;;;;;;;;4994786;28;20053;-65
2021/12/22 03:36:51;;;;;;;38.85;21.05;;;;;;;;;;4993100;28;20083;-73
2021/12/22 03:39:17;;;;;;;41.45;21.35;;;;;;;;;;5011285;28;20621;-66
2021/12/22 03:41:46;;;;;;;38.03;21.83;;;;;;;;;;4986342;28;20553;-74
2021/12/22 03:44:13;;;;;;;40.10;21.48;;;;;;;;;;5009427;28;20084;-69
2021/12/22 03:46:40;;;;;;;40.30;21.05;;;;;;;;;;5010477;28;20457;-67
2021/12/22 03:49:08;;;;;;;40.65;21.83;;;;;;;;;;4978097;28;20056;-73
2021/12/22 03:51:36;;;;;;;37.90;20.60;;;;;;;;;;5004392;28;20061;-76
2021/12/22 03:54:08;;;;;;;37.72;20.65;;;;;;;;;;4992038;28;20068;-74
2021/12/22 03:56:35;;;;;;;38.38;20.65;;;;;;;;;;4986881;28;20042;-70
2021/12/22 03:59:01;;;;;;;38.17;20.15;;;;;;;;;;4991912;28;20048;-74
2021/12/22 04:01:27;;;;;;;39.22;20.52;;;;;;;;;;5005752;28;20053;-74
2021/12/22 04:03:58;;;;;;;36.42;20.00;;;;;;;;;;4976685;28;20073;-72
2021/12/22 04:06:24;;;;;;;42.03;20.88;;;;;;;;;;4991002;28;20049;-78
2021/12/22 04:08:50;;;;;;;40.97;21.67;;;;;;;;;;4989204;28;20061;-75
2021/12/22 04:11:17;;;;;;;40.95;21.92;;;;;;;;;;5004580;28;20053;-75
2021/12/22 04:13:43;;;;;;;40.10;19.85;;;;;;;;;;5006622;28;20045;-69
2021/12/22 04:16:10;;;;;;;43.13;21.70;;;;;;;;;;5007883;28;20067;-75
2021/12/22 04:18:36;;;;;;;39.50;20.55;;;;;;;;;;4973838;28;20045;-80
2021/12/22 04:21:02;;;;;;;42.15;20.95;;;;;;;;;;5007957;28;20127;-78
2021/12/22 04:23:28;;;;;;;38.10;20.02;;;;;;;;;;4986640;28;20072;-72
2021/12/22 04:25:55;;;;;;;35.72;20.02;;;;;;;;;;4991281;28;20415;-76
2021/12/22 04:28:21;;;;;;;40.42;19.67;;;;;;;;;;4990402;28;20053;-76
2021/12/22 04:30:49;;;;;;;36.25;19.88;;;;;;;;;;4988208;28;20075;-71
2021/12/22 04:33:19;;;;;;;39.95;21.33;;;;;;;;;;4986815;28;20231;-76
2021/12/22 04:35:48;;;;;;;35.53;20.17;;;;;;;;;;4977945;28;20342;-67
2021/12/22 04:38:14;;;;;;;34.47;19.08;;;;;;;;;;4992256;28;20104;-71
2021/12/22 04:40:40;;;;;;;42.92;21.13;;;;;;;;;;4993152;28;20072;-68
2021/12/22 04:43:06;;;;;;;42.33;18.90;;;;;;;;;;4990710;28;20522;-74
2021/12/22 04:45:33;;;;;;;38.00;20.35;;;;;;;;;;5015147;28;20483;-77
2021/12/22 04:47:59;;;;;;;35.58;20.65;;;;;;;;;;4980647;28;20053;-71
2021/12/22 04:50:26;;;;;;;40.80;20.27;;;;;;;;;;5013817;28;20089;-72
2021/12/22 04:53:10;;;;;;;40.35;20.17;;;;;;;;;;4990996;28;20049;-73
2021/12/22 04:55:37;;;;;;;35.92;19.17;;;;;;;;;;4994145;28;20401;-71
2021/12/22 04:58:03;;;;;;;38.78;20.27;;;;;;;;;;5015045;28;21265;-79
2021/12/22 05:00:32;;;;;;;37.60;20.95;;;;;;;;;;5014597;28;20049;-72
2021/12/22 05:02:59;;;;;;;39.47;21.17;;;;;;;;;;5007546;28;20061;-69
2021/12/22 05:05:27;;;;;;;42.03;21.02;;;;;;;;;;4994812;28;20099;-74
2021/12/22 05:07:53;;;;;;;42.22;20.77;;;;;;;;;;4978218;28;20176;-67
2021/12/22 05:10:20;;;;;;;38.30;21.10;;;;;;;;;;4996115;28;20059;-73
2021/12/22 05:12:47;;;;;;;39.60;21.65;;;;;;;;;;4994237;28;21538;-69
2021/12/22 05:15:17;;;;;;;42.72;21.83;;;;;;;;;;5013835;28;20702;-75
2021/12/22 05:20:13;;;;;;;35.70;20.20;;;;;;;;;;5002684;28;20045;-72
2021/12/22 05:22:40;;;;;;;41.38;21.48;;;;;;;;;;4982728;28;20037;-67
2021/12/22 05:25:08;;;;;;;37.58;20.85;;;;;;;;;;4999315;28;20427;-75
2021/12/22 05:27:36;;;;;;;44.03;22.17;;;;;;;;;;5013361;28;20406;-76
2021/12/22 05:30:03;;;;;;;37.65;21.17;;;;;;;;;;4991789;28;20064;-77
2021/12/22 05:32:31;;;;;;;41.42;21.48;;;;;;;;;;4986443;28;20052;-73
2021/12/22 05:34:59;;;;;;;38.20;20.67;;;;;;;;;;5009038;28;20083;-75
2021/12/22 05:37:26;;;;;;;41.30;22.52;;;;;;;;;;4990761;28;20164;-78
2021/12/22 05:39:55;;;;;;;39.22;21.33;;;;;;;;;;4989695;28;20520;-69
2021/12/22 05:42:21;;;;;;;48.13;22.38;;;;;;;;;;4991510;28;20107;-71
2021/12/22 05:44:48;;;;;;;38.65;20.27;;;;;;;;;;5005206;28;20103;-69
2021/12/22 05:47:14;;;;;;;44.15;21.20;;;;;;;;;;5007775;28;20087;-77
2021/12/22 05:49:43;;;;;;;52.05;22.40;;;;;;;;;;5007597;28;20116;-73
2021/12/22 05:52:09;;;;;;;48.20;22.35;;;;;;;;;;5008734;28;20140;-67
2021/12/22 05:54:35;;;;;;;46.58;21.95;;;;;;;;;;4996220;28;20046;-76
2021/12/22 05:57:02;;;;;;;46.35;21.00;;;;;;;;;;5016542;28;20152;-76
2021/12/22 05:59:28;;;;;;;44.97;23.00;;;;;;;;;;4977674;28;20038;-72
2021/12/22 06:01:54;;;;;;;45.65;21.13;;;;;;;;;;5009931;28;20533;-79
2021/12/22 06:04:20;;;;;;;42.00;22.05;;;;;;;;;;5000496;28;20111;-69
2021/12/22 06:06:46;;;;;;;44.22;22.88;;;;;;;;;;4995886;28;20085;-68
2021/12/22 06:09:12;;;;;;;43.10;23.08;;;;;;;;;;5006802;28;20058;-69
2021/12/22 06:11:39;;;;;;;49.35;21.45;;;;;;;;;;5016197;28;20072;-70
2021/12/22 06:14:05;;;;;;;44.13;23.15;;;;;;;;;;5002165;28;20136;-79
2021/12/22 06:16:31;;;;;;;50.88;23.40;;;;;;;;;;4998688;28;20127;-80
2021/12/22 06:19:02;;;;;;;39.85;22.27;;;;;;;;;;5019245;28;20451;-73
2021/12/22 06:21:30;;;;;;;45.60;22.25;;;;;;;;;;5016567;28;20053;-82
2021/12/22 06:23:57;;;;;;;44.30;22.45;;;;;;;;;;5017127;28;20088;-78
2021/12/22 06:26:24;;;;;;;45.28;22.65;;;;;;;;;;5020145;28;20415;-70
2021/12/22 06:28:51;;;;;;;43.40;23.13;;;;;;;;;;5017872;28;20057;-71
2021/12/22 06:31:18;;;;;;;49.40;22.40;;;;;;;;;;5012218;28;20053;-79
2021/12/22 06:33:44;;;;;;;44.63;21.13;;;;;;;;;;4996358;28;20064;-69
2021/12/22 06:36:10;;;;;;;43.40;21.75;;;;;;;;;;5016542;28;20054;-66
2021/12/22 06:38:38;;;;;;;43.47;22.50;;;;;;;;;;5016277;28;20523;-75
2021/12/22 06:41:04;;;;;;;49.30;23.17;;;;;;;;;;5001616;28;20042;-78
2021/12/22 06:43:30;;;;;;;45.28;22.92;;;;;;;;;;4998088;28;20053;-69
2021/12/22 06:45:56;;;;;;;50.42;22.92;;;;;;;;;;4998968;28;20053;-79
2021/12/22 06:48:22;;;;;;;41.45;22.67;;;;;;;;;;4980502;28;20061;-68
2021/12/22 06:50:49;;;;;;;45.17;24.00;;;;;;;;;;5016304;28;20477;-72
2021/12/22 06:53:15;;;;;;;40.97;22.80;;;;;;;;;;4993566;28;20103;-68
2021/12/22 06:55:41;;;;;;;45.05;23.35;;;;;;;;;;4996687;28;20053;-68
2021/12/22 06:58:07;;;;;;;41.30;22.27;;;;;;;;;;5016655;28;20057;-78
2021/12/22 07:00:36;;;;;;;47.03;23.02;;;;;;;;;;5018845;28;20037;-75
2021/12/22 07:03:04;;;;;;;47.95;22.63;;;;;;;;;;4999468;28;20057;-71
2021/12/22 07:05:32;;;;;;;43.67;23.88;;;;;;;;;;5018350;28;20439;-76
2021/12/22 07:07:58;;;;;;;49.33;23.75;;;;;;;;;;4997897;28;20049;-68
2021/12/22 07:10:24;;;;;;;51.65;24.05;;;;;;;;;;5010160;28;20059;-72
2021/12/22 07:12:50;;;;;;;57.42;24.02;;;;;;;;;;5008990;28;20573;-71
2021/12/22 07:15:18;;;;;;;47.72;22.48;;;;;;;;;;5012529;28;20182;-74
2021/12/22 07:17:47;;;;;;;46.03;22.73;;;;;;;;;;5010175;28;20085;-69
2021/12/22 07:20:14;;;;;;;45.38;23.20;;;;;;;;;;4981534;28;20053;-77
2021/12/22 07:22:41;;;;;;;39.00;22.23;;;;;;;;;;5012841;28;20045;-65
2021/12/22 07:25:10;;;;;;;48.58;22.38;;;;;;;;;;5012816;28;20107;-67
2021/12/22 07:27:36;;;;;;;47.15;22.85;;;;;;;;;;4996139;28;20049;-76
2021/12/22 07:30:03;;;;;;;45.92;22.50;;;;;;;;;;5013300;28;20327;-75
2021/12/22 07:32:30;;;;;;;51.53;24.35;;;;;;;;;;5005242;28;20087;-73
2021/12/22 07:35:00;;;;;;;62.85;25.00;;;;;;;;;;5019391;28;20144;-69
2021/12/22 07:37:41;;;;;;;49.85;23.65;;;;;;;;;;4983156;28;20199;-70
2021/12/22 07:40:11;;;;;;;49.42;22.90;;;;;;;;;;5016368;28;20502;-76
2021/12/22 07:42:37;;;;;;;49.55;25.10;;;;;;;;;;4993195;28;20057;-68
2021/12/22 07:45:05;;;;;;;47.78;23.88;;;;;;;;;;5019948;28;20049;-68
2021/12/22 07:47:31;;;;;;;46.97;24.70;;;;;;;;;;5018738;28;20508;-68
2021/12/22 07:49:58;;;;;;;54.28;24.08;;;;;;;;;;5003859;28;20053;-66
2021/12/22 07:52:27;;;;;;;57.47;25.45;;;;;;;;;;4999116;28;20259;-72
2021/12/22 07:54:54;;;;;;;50.25;24.17;;;;;;;;;;4986803;28;20495;-63
2021/12/22 07:57:20;;;;;;;47.83;23.85;;;;;;;;;;4999027;28;20052;-63
2021/12/22 07:59:47;;;;;;;46.50;23.95;;;;;;;;;;5016496;28;20067;-73
2021/12/22 08:02:13;;;;;;;54.17;25.73;;;;;;;;;;4989372;28;20384;-76
2021/12/22 08:04:40;;;;;;;47.30;24.02;;;;;;;;;;4990834;28;20049;-73
2021/12/22 08:07:06;;;;;;;44.63;23.67;;;;;;;;;;4973731;28;20387;-74
2021/12/22 08:09:32;;;;;;;48.42;23.30;;;;;;;;;;4988176;28;20061;-72
2021/12/22 08:12:04;;;;;;;48.42;25.15;;;;;;;;;;5004783;28;20149;-71
2021/12/22 08:14:36;;;;;;;51.28;24.33;;;;;;;;;;5009322;28;20195;-70
2021/12/22 08:17:03;;;;;;;45.45;25.00;;;;;;;;;;5006041;28;20077;-72
2021/12/22 08:19:29;;;;;;;47.20;25.55;;;;;;;;;;4988810;28;20418;-72
2021/12/22 08:21:56;;;;;;;46.63;24.85;;;;;;;;;;4985571;28;20057;-74
2021/12/22 08:24:22;;;;;;;59.80;25.48;;;;;;;;;;4989989;28;20061;-72
2021/12/22 08:26:50;;;;;;;48.75;25.02;;;;;;;;;;5008044;28;20217;-72
2021/12/22 08:29:16;;;;;;;49.38;25.95;;;;;;;;;;5007166;28;20072;-73
2021/12/22 08:31:43;;;;;;;46.60;25.00;;;;;;;;;;4985405;28;20514;-73
2021/12/22 08:34:10;;;;;;;45.70;24.80;;;;;;;;;;4991120;28;20069;-72
2021/12/22 08:39:24;;;;;;;51.47;26.52;;;;;;;;;;4992915;28;20065;-72
2021/12/22 08:41:53;;;;;;;49.55;24.42;;;;;;;;;;5004235;28;20091;-73
2021/12/22 08:44:19;;;;;;;52.35;24.40;;;;;;;;;;4990703;28;20053;-72
2021/12/22 08:46:49;;;;;;;43.38;22.90;;;;;;;;;;4987553;28;20056;-72
2021/12/22 08:49:20;;;;;;;43.92;22.83;;;;;;;;;;5006535;28;20085;-73
2021/12/22 08:51:47;;;;;;;40.85;24.30;;;;;;;;;;4971481;28;20061;-73
2021/12/22 08:54:14;;;;;;;54.17;25.67;;;;;;;;;;4990055;28;20331;-72
2021/12/22 08:56:40;;;;;;;52.35;25.63;;;;;;;;;;5007448;28;20400;-72
2021/12/22 08:59:09;;;;;;;48.85;25.48;;;;;;;;;;4992342;28;20068;-72
2021/12/22 09:01:35;;;;;;;45.80;23.40;;;;;;;;;;5005595;28;20476;-73
2021/12/22 09:04:02;;;;;;;37.90;20.17;;;;;;;;;;4990892;28;20038;-73
2021/12/22 09:06:28;;;;;;;29.85;19.50;;;;;;;;;;4973201;28;20638;-72
2021/12/22 09:08:55;;;;;;;38.92;20.08;;;;;;;;;;5006568;28;20707;-73
2021/12/22 09:11:22;;;;;;;51.03;24.60;;;;;;;;;;4986000;28;20464;-72
2021/12/22 09:13:48;;;;;;;43.20;22.50;;;;;;;;;;5008782;28;20053;-74
2021/12/22 09:16:15;;;;;;;40.88;20.73;;;;;;;;;;5008897;28;21062;-73
2021/12/22 09:18:41;;;;;;;36.47;21.35;;;;;;;;;;4986148;28;20060;-70
2021/12/22 09:21:10;;;;;;;40.13;20.15;;;;;;;;;;5006065;28;20579;-73
2021/12/22 09:23:38;;;;;;;38.30;21.02;;;;;;;;;;4986878;28;20699;-72
2021/12/22 09:26:05;;;;;;;39.38;20.35;;;;;;;;;;4989454;28;20195;-72
2021/12/22 09:28:32;;;;;;;48.45;22.77;;;;;;;;;;5005713;28;20428;-72
2021/12/22 09:30:59;;;;;;;36.35;20.40;;;;;;;;;;4972723;28;20061;-75
2021/12/22 09:33:26;;;;;;;34.42;18.27;;;;;;;;;;5003969;28;20703;-75
2021/12/22 09:35:54;;;;;;;33.75;20.08;;;;;;;;;;5010230;28;20115;-71
2021/12/22 09:38:20;;;;;;;34.33;20.88;;;;;;;;;;5011390;28;20154;-73
2021/12/22 09:40:47;;;;;;;29.70;20.02;;;;;;;;;;4996138;28;20060;-74
2021/12/22 09:43:13;;;;;;;38.70;21.05;;;;;;;;;;4989887;28;20572;-75
2021/12/22 09:45:47;;;;;;;36.30;20.42;;;;;;;;;;4990219;28;20103;-75
2021/12/22 09:53:39;;;;;;;34.67;19.42;;;;;;;;;;4964859;28;20099;-72
2021/12/22 09:56:06;;;;;;;37.45;19.15;;;;;;;;;;4990065;28;20046;-73
2021/12/22 09:58:36;;;;;;;36.10;20.55;;;;;;;;;;5007674;28;20392;-72
2021/12/22 10:01:02;;;;;;;35.78;20.23;;;;;;;;;;5006680;28;20076;-74
2021/12/22 10:03:28;;;;;;;35.25;20.92;;;;;;;;;;4988113;28;20058;-74
2021/12/22 10:05:55;;;;;;;40.15;22.10;;;;;;;;;;5012752;28;20762;-73
2021/12/22 10:08:24;;;;;;;39.38;21.95;;;;;;;;;;5009480;28;20083;-73
2021/12/22 10:11:01;;;;;;;40.63;24.05;;;;;;;;;;5009576;28;20045;-73
2021/12/22 10:13:29;;;;;;;38.10;21.92;;;;;;;;;;5005977;28;20081;-73
2021/12/22 10:15:56;;;;;;;39.35;20.67;;;;;;;;;;5009879;28;20053;-73
2021/12/22 10:18:27;;;;;;;40.15;22.30;;;;;;;;;;4994043;28;20076;-74
2021/12/22 10:21:09;;;;;;;35.42;21.63;;;;;;;;;;5000030;28;20816;-71
2021/12/22 10:23:35;;;;;;;35.65;24.10;;;;;;;;;;5000740;28;20049;-73
2021/12/22 10:26:04;;;;;;;45.58;22.85;;;;;;;;;;4998180;28;20053;-73
2021/12/22 10:28:56;;;;;;;36.20;23.52;;;;;;;;;;5013689;28;20517;-72
2021/12/22 10:31:35;;;;;;;38.45;21.30;;;;;;;;;;5011376;28;20055;-73
2021/12/22 10:34:07;;;;;;;39.15;23.05;;;;;;;;;;4997792;28;20054;-73
2021/12/22 10:36:50;;;;;;;38.53;23.40;;;;;;;;;;5014097;28;20072;-74
2021/12/22 10:39:28;;;;;;;44.88;22.65;;;;;;;;;;5021066;28;20570;-74
2021/12/22 10:42:06;;;;;;;43.83;23.45;;;;;;;;;;5015478;28;20384;-73
2021/12/22 10:44:36;;;;;;;46.08;24.55;;;;;;;;;;5000833;28;20493;-73
2021/12/22 10:49:14;;;;;;;43.53;23.95;;;;;;;;;;5006206;28;20045;-73
2021/12/22 10:50:23;;;;;;;42.70;25.33;;;;;;;;;;4998531;28;20093;-73
2021/12/22 10:52:50;;;;;;;46.63;27.17;;;;;;;;;;5015504;28;20139;-72
2021/12/22 10:55:16;;;;;;;51.17;26.40;;;;;;;;;;4999943;28;20061;-74
2021/12/22 10:57:45;;;;;;;45.20;26.90;;;;;;;;;;4997974;28;20054;-72
2021/12/22 11:00:18;;;;;;;51.45;29.45;;;;;;;;;;4984725;28;20053;-73
2021/12/22 11:03:00;;;;;;;54.55;28.13;;;;;;;;;;5009448;28;20152;-72
2021/12/22 11:05:29;;;;;;;52.15;28.52;;;;;;;;;;5015452;28;20730;-74
2021/12/22 11:07:57;;;;;;;54.28;28.45;;;;;;;;;;5014828;28;20399;-73
2021/12/22 11:10:29;;;;;;;39.90;25.10;;;;;;;;;;4998818;28;20049;-74
2021/12/22 11:13:06;;;;;;;37.17;23.02;;;;;;;;;;5011648;28;20672;-72
2021/12/22 11:15:43;;;;;;;43.55;25.75;;;;;;;;;;5015072;28;20378;-74
2021/12/22 11:18:24;;;;;;;41.17;25.15;;;;;;;;;;4996377;28;20494;-72
2021/12/22 11:21:33;;;;;;;41.22;24.17;;;;;;;;;;4997184;28;20519;-74
2021/12/22 11:24:00;;;;;;;48.97;25.10;;;;;;;;;;5013601;28;20080;-72
2021/12/22 11:26:26;;;;;;;44.65;25.58;;;;;;;;;;4995343;28;20102;-74
2021/12/22 11:28:53;;;;;;;44.92;26.90;;;;;;;;;;4995686;28;20195;-76
2021/12/22 11:31:20;;;;;;;49.55;25.80;;;;;;;;;;5013782;28;20664;-72
2021/12/22 11:33:47;;;;;;;47.95;25.98;;;;;;;;;;4995236;28;20067;-75
2021/12/22 11:36:14;;;;;;;48.08;26.00;;;;;;;;;;5014093;28;20282;-74
2021/12/22 11:38:41;;;;;;;45.65;25.30;;;;;;;;;;5013913;28;20053;-73
2021/12/22 11:41:12;;;;;;;50.30;26.38;;;;;;;;;;5012609;28;20067;-72
2021/12/22 11:43:41;;;;;;;55.95;28.63;;;;;;;;;;5008614;28;20065;-72
2021/12/22 11:46:08;;;;;;;45.75;27.73;;;;;;;;;;4976964;28;20061;-71
2021/12/22 11:48:36;;;;;;;46.47;27.23;;;;;;;;;;5010863;28;20057;-72
2021/12/22 11:51:20;;;;;;;43.17;25.88;;;;;;;;;;4990470;28;20049;-72
2021/12/22 11:53:50;;;;;;;;;;;;;;;;;;5010486;28;20442;-72
2021/12/22 11:56:46;;;;;;;38.13;22.40;;;;;;;;;;4990486;28;19975;-74
2021/12/22 11:59:31;;;;;;;45.55;23.73;;;;;;;;;;5011993;28;20145;-74
2021/12/22 12:02:16;;;;;;;42.60;23.15;;;;;;;;;;5007277;28;20053;-73
2021/12/22 12:04:42;;;;;;;;;;;;;;;;;;5010114;28;20132;-71
2021/12/22 12:07:08;;;;;;;41.45;22.92;;;;;;;;;;5009735;28;20007;-75
2021/12/22 12:09:35;;;;;;;40.00;23.38;;;;;;;;;;4989504;28;20613;-75
2021/12/22 12:12:05;;;;;;;39.35;22.92;;;;;;;;;;5006673;28;20129;-74
2021/12/22 12:15:27;;;;;;;41.08;22.25;;;;;;;;;;4974546;28;20085;-73
2021/12/22 12:23:20;;;;;;;42.38;23.92;;;;;;;;;;5004716;28;20083;-75
2021/12/22 12:25:46;;;;;;;40.70;23.13;;;;;;;;;;4987632;28;20072;-74
2021/12/22 12:28:18;;;;;;;40.55;23.35;;;;;;;;;;4987092;28;20062;-73
2021/12/22 12:30:48;;;;;;;46.13;23.00;;;;;;;;;;5006527;28;20411;-73
2021/12/22 12:33:31;;;;;;;49.83;22.98;;;;;;;;;;4984300;28;20057;-73
2021/12/22 12:36:05;;;;;;;40.92;23.60;;;;;;;;;;5009178;28;20049;-75
2021/12/22 12:38:40;;;;;;;42.10;23.90;;;;;;;;;;4993090;28;20507;-73
2021/12/22 12:41:13;;;;;;;49.15;25.20;;;;;;;;;;4972168;28;20065;-72
2021/12/22 12:43:45;;;;;;;39.42;24.25;;;;;;;;;;5007373;28;20111;-75
2021/12/22 12:46:20;;;;;;;44.40;23.35;;;;;;;;;;5008542;28;20045;-76
2021/12/22 12:48:49;;;;;;;42.15;23.92;;;;;;;;;;5009439;28;20073;-77
2021/12/22 12:51:19;;;;;;;43.58;23.90;;;;;;;;;;5006348;28;20049;-74
2021/12/22 12:53:48;;;;;;;45.72;23.42;;;;;;;;;;5007986;28;20068;-74
2021/12/22 12:56:16;;;;;;;44.95;25.10;;;;;;;;;;5008427;28;20073;-74
2021/12/22 12:58:53;;;;;;;46.60;26.27;;;;;;;;;;4988525;28;20049;-74
2021/12/22 13:04:43;;;;;;;45.45;23.73;;;;;;;;;;5007362;28;20045;-73
2021/12/22 13:07:14;;;;;;;49.03;24.48;;;;;;;;;;5009101;28;20198;-73
2021/12/22 13:09:50;;;;;;;41.60;24.60;;;;;;;;;;4988515;28;20044;-75
2021/12/22 13:12:35;;;;;;;52.80;25.63;;;;;;;;;;5003885;28;20435;-73
2021/12/22 13:17:55;;;;;;;49.90;25.23;;;;;;;;;;4991136;28;20072;-74
2021/12/22 13:20:29;;;;;;;47.10;24.63;;;;;;;;;;5009263;28;21832;-74
2021/12/22 13:23:03;;;;;;;46.63;26.73;;;;;;;;;;5002993;28;20099;-74
2021/12/22 13:25:34;;;;;;;42.13;24.10;;;;;;;;;;4989853;28;20502;-72
2021/12/22 13:28:11;;;;;;;44.08;22.95;;;;;;;;;;4990353;28;20411;-73
2021/12/22 13:30:39;;;;;;;44.35;23.63;;;;;;;;;;4991235;28;20053;-75
2021/12/22 13:33:07;;;;;;;44.33;24.40;;;;;;;;;;5002848;28;20046;-74
2021/12/22 13:35:49;;;;;;;41.83;23.60;;;;;;;;;;5004492;28;20148;-73
2021/12/22 13:38:37;;;;;;;46.03;23.75;;;;;;;;;;4989855;28;20786;-74
2021/12/22 13:41:21;;;;;;;47.03;24.92;;;;;;;;;;5008212;28;20056;-73
2021/12/22 13:43:53;;;;;;;43.43;24.87;;;;;;;;;;5006101;28;20084;-74
2021/12/22 13:46:30;;;;;;;48.90;24.67;;;;;;;;;;5005796;28;20057;-73
2021/12/22 13:48:57;;;;;;;46.15;24.48;;;;;;;;;;4975822;28;20083;-74
2021/12/22 13:51:33;;;;;;;41.20;23.98;;;;;;;;;;5006760;28;20062;-75
2021/12/22 13:54:01;;;;;;;41.53;22.33;;;;;;;;;;4991830;28;20049;-76
2021/12/22 13:56:33;;;;;;;44.92;22.95;;;;;;;;;;4993835;28;20057;-74
2021/12/22 13:59:05;;;;;;;42.70;21.92;;;;;;;;;;4991349;28;20049;-74
2021/12/22 14:01:34;;;;;;;39.35;22.17;;;;;;;;;;4987056;28;20053;-74
2021/12/22 14:04:01;;;;;;;43.28;21.90;;;;;;;;;;5008974;28;20056;-73
2021/12/22 14:06:33;;;;;;;36.90;23.08;;;;;;;;;;5008559;28;20047;-74
2021/12/22 14:09:09;;;;;;;44.90;23.35;;;;;;;;;;5007719;28;20053;-76
2021/12/22 14:11:42;;;;;;;37.58;21.85;;;;;;;;;;5002724;28;20068;-73
2021/12/22 14:14:27;;;;;;;39.42;23.40;;;;;;;;;;4988581;28;20119;-75
2021/12/22 14:17:02;;;;;;;41.75;22.80;;;;;;;;;;4991151;28;20449;-73
2021/12/22 14:19:31;;;;;;;41.78;23.00;;;;;;;;;;4972892;28;20537;-73
2021/12/22 14:22:04;;;;;;;39.03;22.60;;;;;;;;;;4988165;28;20045;-74
2021/12/22 14:24:36;;;;;;;47.17;23.27;;;;;;;;;;5010997;28;20402;-73
2021/12/22 14:27:04;;;;;;;45.35;23.85;;;;;;;;;;4993046;28;20041;-73
2021/12/22 14:29:32;;;;;;;43.38;22.70;;;;;;;;;;5011733;28;20597;-71
2021/12/22 14:32:06;;;;;;;42.88;23.85;;;;;;;;;;5008198;28;20433;-74
2021/12/22 14:34:33;;;;;;;42.20;24.75;;;;;;;;;;4994520;28;20495;-72
2021/12/22 14:37:03;;;;;;;43.58;24.17;;;;;;;;;;4979053;28;20057;-72
2021/12/22 14:39:38;;;;;;;37.83;21.95;;;;;;;;;;5013672;28;20051;-73
2021/12/22 14:42:29;;;;;;;40.80;23.13;;;;;;;;;;4991625;28;20049;-73
2021/12/22 14:45:27;;;;;;;43.08;22.15;;;;;;;;;;5011253;28;20053;-73
2021/12/22 14:48:06;;;;;;;35.15;20.98;;;;;;;;;;5011990;28;20103;-74
2021/12/22 14:50:35;;;;;;;41.90;21.15;;;;;;;;;;5011010;28;20047;-74
2021/12/22 14:53:05;;;;;;;36.85;20.95;;;;;;;;;;5008970;28;20060;-75
2021/12/22 14:55:40;;;;;;;37.63;21.40;;;;;;;;;;4995030;28;20132;-74
2021/12/22 14:58:08;;;;;;;37.30;22.48;;;;;;;;;;5011769;28;20061;-75
2021/12/22 15:00:37;;;;;;;42.33;22.00;;;;;;;;;;5012858;28;20050;-74
2021/12/22 15:03:05;;;;;;;38.72;20.25;;;;;;;;;;5006869;28;20041;-71
2021/12/22 15:05:31;;;;;;;35.95;20.35;;;;;;;;;;4991777;28;20057;-74